createdAt,value
2019-04-14T00:01:17.656Z,4
2019-04-14T00:04:11.944Z,4
2019-04-14T00:07:07.871Z,3.9
2019-04-14T00:10:01.341Z,3.9
2019-04-14T00:12:56.094Z,3.9
2019-04-14T00:15:53.731Z,3.9
2019-04-14T00:18:46.852Z,3.9
2019-04-14T00:21:41.462Z,4
2019-04-14T00:24:36.130Z,4
2019-04-14T00:27:30.652Z,3.9
2019-04-14T00:30:25.575Z,3.9
2019-04-14T00:33:19.624Z,3.9
2019-04-14T00:36:13.947Z,3.9
2019-04-14T00:39:09.928Z,4
2019-04-14T00:42:06.571Z,4
2019-04-14T00:44:58.490Z,4
2019-04-14T00:48:07.837Z,4
2019-04-14T00:50:47.620Z,4
2019-04-14T00:53:42.858Z,4
2019-04-14T00:56:37.301Z,4
2019-04-14T00:59:31.978Z,3.9
2019-04-14T01:02:27.879Z,3.9
2019-04-14T01:05:22.156Z,4
2019-04-14T01:08:16.792Z,4
2019-04-14T01:11:12.102Z,4
2019-04-14T01:14:06.282Z,3.9
2019-04-14T01:17:00.856Z,3.9
2019-04-14T01:19:55.272Z,4
2019-04-14T01:22:50.883Z,3.9
2019-04-14T01:25:45.674Z,3.9
2019-04-14T01:28:40.087Z,3.9
2019-04-14T01:31:34.253Z,3.9
2019-04-14T01:34:28.663Z,3.9
2019-04-14T01:37:23.355Z,3.9
2019-04-14T01:40:18.899Z,3.9
2019-04-14T01:43:12.808Z,3.9
2019-04-14T01:46:20.640Z,3.9
2019-04-14T01:49:03.281Z,3.9
2019-04-14T01:51:57.513Z,3.9
2019-04-14T01:54:51.925Z,3.9
2019-04-14T01:57:46.515Z,3.9
2019-04-14T02:00:42.366Z,3.9
2019-04-14T02:03:37.037Z,3.9
2019-04-14T02:06:31.687Z,3.9
2019-04-14T02:09:25.621Z,3.9
2019-04-14T02:12:21.382Z,3.8
2019-04-14T02:15:15.853Z,3.8
2019-04-14T02:18:10.385Z,3.8
2019-04-14T02:21:04.699Z,3.8
2019-04-14T02:24:00.843Z,3.8
2019-04-14T02:26:55.139Z,3.8
2019-04-14T02:29:49.857Z,3.8
2019-04-14T02:39:45.670Z,3.8
2019-04-14T02:42:39.400Z,3.8
2019-04-14T02:45:26.082Z,3.8
2019-04-14T02:48:43.981Z,3.7
2019-04-14T02:51:12.173Z,3.7
2019-04-14T02:59:58.292Z,3.7
2019-04-14T03:11:37.617Z,3.6
2019-04-14T03:17:59.925Z,3.5
2019-04-14T03:25:48.890Z,3.5
2019-04-14T03:29:14.502Z,3.6
2019-04-14T03:35:19.332Z,3.6
2019-04-14T03:43:30.105Z,3.5
2019-04-14T03:46:41.193Z,3.5
2019-04-14T03:49:36.671Z,3.6
2019-04-14T03:52:31.109Z,3.5
2019-04-14T03:54:56.262Z,3.5
2019-04-14T03:57:10.864Z,3.6
2019-04-14T04:00:05.744Z,3.5
2019-04-14T04:03:00.173Z,3.5
2019-04-14T04:05:54.677Z,3.3
2019-04-14T04:08:49.280Z,3.4
2019-04-14T04:11:43.978Z,3.4
2019-04-14T04:14:39.824Z,3.4
2019-04-14T04:17:34.582Z,3.4
2019-04-14T04:20:28.976Z,3.4
2019-04-14T04:23:23.184Z,3.4
2019-04-14T04:26:17.482Z,3.3
2019-04-14T04:29:12.216Z,3.3
2019-04-14T04:32:08.138Z,3.3
2019-04-14T04:35:02.659Z,3.3
2019-04-14T04:37:56.746Z,3.3
2019-04-14T04:40:51.180Z,3.3
2019-04-14T04:43:45.698Z,3.3
2019-04-14T04:46:41.515Z,3.2
2019-04-14T04:49:36.141Z,3.3
2019-04-14T04:52:30.486Z,3.2
2019-04-14T04:55:24.360Z,3.2
2019-04-14T04:58:19.938Z,3.2
2019-04-14T05:01:14.896Z,3.2
2019-04-14T05:04:09.464Z,3.2
2019-04-14T05:07:03.991Z,3.2
2019-04-14T05:09:58.214Z,3.2
2019-04-14T05:12:52.658Z,3.1
2019-04-14T05:15:47.115Z,3.2
2019-04-14T05:18:42.310Z,3.2
2019-04-14T05:21:37.061Z,3.3
2019-04-14T05:24:31.482Z,3.3
2019-04-14T05:27:25.975Z,3.3
2019-04-14T05:30:21.751Z,3.3
2019-04-14T05:33:16.073Z,3.4
2019-04-14T05:36:11.084Z,3.4
2019-04-14T05:39:05.046Z,3.3
2019-04-14T05:42:14.738Z,3.3
2019-04-14T05:44:54.045Z,3.3
2019-04-14T05:47:48.538Z,3.3
2019-04-14T05:50:44.174Z,3.3
2019-04-14T05:53:37.899Z,3.3
2019-04-14T05:56:37.574Z,3.3
2019-04-14T05:59:28.506Z,3.4
2019-04-14T06:02:22.670Z,3.5
2019-04-14T06:05:17.040Z,3.4
2019-04-14T06:08:11.265Z,3.4
2019-04-14T06:11:06.018Z,3.4
2019-04-14T06:14:00.701Z,3.4
2019-04-14T06:16:55.369Z,3.4
2019-04-14T06:19:50.037Z,3.4
2019-04-14T06:22:44.709Z,3.4
2019-04-14T06:25:39.375Z,3.4
2019-04-14T06:28:34.071Z,3.4
2019-04-14T06:31:28.735Z,3.4
2019-04-14T06:34:23.433Z,3.4
2019-04-14T06:37:18.017Z,3.3
2019-04-14T06:40:12.705Z,3.4
2019-04-14T06:43:07.471Z,3.4
2019-04-14T06:46:02.145Z,3.3
2019-04-14T06:48:56.819Z,3.3
2019-04-14T06:51:51.511Z,3.4
2019-04-14T06:54:46.210Z,3.3
2019-04-14T06:57:40.903Z,3.4
2019-04-14T07:00:35.611Z,3.4
2019-04-14T07:03:30.315Z,3.4
2019-04-14T07:06:24.993Z,3.4
2019-04-14T07:09:19.766Z,3.5
2019-04-14T07:12:14.655Z,3.6
2019-04-14T07:15:09.185Z,3.5
2019-04-14T07:18:03.865Z,3.4
2019-04-14T07:20:58.530Z,3.4
2019-04-14T07:23:53.195Z,3.4
2019-04-14T07:26:47.855Z,3.4
2019-04-14T07:29:42.501Z,3.3
2019-04-14T07:32:37.194Z,3.5
2019-04-14T07:35:31.864Z,3.6
2019-04-14T07:38:26.530Z,3.5
2019-04-14T07:41:21.227Z,3.6
2019-04-14T07:44:15.903Z,3.6
2019-04-14T07:47:10.627Z,3.5
2019-04-14T07:50:15.318Z,3.6
2019-04-14T07:53:00.039Z,3.6
2019-04-14T07:55:54.774Z,3.7
2019-04-14T07:58:49.507Z,3.6
2019-04-14T08:01:44.222Z,3.7
2019-04-14T08:04:38.934Z,3.8
2019-04-14T08:07:33.655Z,3.8
2019-04-14T08:10:28.344Z,3.8
2019-04-14T08:13:23.074Z,3.8
2019-04-14T08:16:17.815Z,3.8
2019-04-14T08:19:12.524Z,3.9
2019-04-14T08:22:07.262Z,4
2019-04-14T08:25:02.040Z,4
2019-04-14T08:27:56.816Z,4
2019-04-14T08:30:51.558Z,3.9
2019-04-14T08:33:46.330Z,4.1
2019-04-14T08:36:41.110Z,4.1
2019-04-14T08:39:35.902Z,4.1
2019-04-14T08:42:30.658Z,4.1
2019-04-14T08:45:25.440Z,4.2
2019-04-14T08:48:20.208Z,4.2
2019-04-14T08:51:14.939Z,4.1
2019-04-14T08:54:09.731Z,4.2
2019-04-14T08:57:04.499Z,4.2
2019-04-14T08:59:59.278Z,4.3
2019-04-14T09:02:54.071Z,4.4
2019-04-14T09:05:48.852Z,4.4
2019-04-14T09:08:43.640Z,4.4
2019-04-14T09:11:38.441Z,4.4
2019-04-14T09:14:33.212Z,4.4
2019-04-14T09:17:27.975Z,4.2
2019-04-14T09:20:22.748Z,4.3
2019-04-14T09:23:17.533Z,4.3
2019-04-14T09:26:12.274Z,4.3
2019-04-14T09:29:07.056Z,4.5
2019-04-14T09:32:01.853Z,4.5
2019-04-14T09:34:56.607Z,4.6
2019-04-14T09:37:51.364Z,4.6
2019-04-14T09:40:46.134Z,4.5
2019-04-14T09:43:40.904Z,4.6
2019-04-14T09:46:35.582Z,4.4
2019-04-14T09:49:30.420Z,4.4
2019-04-14T09:52:25.072Z,4.6
2019-04-14T09:55:19.938Z,4.7
2019-04-14T09:58:14.673Z,4.7
2019-04-14T10:01:09.576Z,4.5
2019-04-14T10:04:04.309Z,4.6
2019-04-14T10:06:59.176Z,4.7
2019-04-14T10:09:53.965Z,4.5
2019-04-14T10:12:48.723Z,4.7
2019-04-14T10:15:43.538Z,4.7
2019-04-14T10:18:38.346Z,4.6
2019-04-14T10:21:33.159Z,4.8
2019-04-14T10:24:27.951Z,4.8
2019-04-14T10:27:22.751Z,4.7
2019-04-14T10:30:17.571Z,4.8
2019-04-14T10:33:12.391Z,4.8
2019-04-14T10:36:07.209Z,5
2019-04-14T10:39:02.045Z,5
2019-04-14T10:41:56.869Z,5
2019-04-14T10:44:51.683Z,5.1
2019-04-14T10:47:46.534Z,5.3
2019-04-14T10:50:41.346Z,5.3
2019-04-14T10:53:36.202Z,5.3
2019-04-14T10:56:31.004Z,5.4
2019-04-14T10:59:25.875Z,5.4
2019-04-14T11:02:20.691Z,5.5
2019-04-14T11:05:15.534Z,5.4
2019-04-14T11:08:10.382Z,5.6
2019-04-14T11:11:05.232Z,5.5
2019-04-14T11:14:00.295Z,5.5
2019-04-14T11:16:54.943Z,5.6
2019-04-14T11:19:49.803Z,5.6
2019-04-14T11:22:44.673Z,5.6
2019-04-14T11:28:34.369Z,5.6
2019-04-14T11:31:29.217Z,5.3
2019-04-14T11:34:24.099Z,5.5
2019-04-14T11:37:18.915Z,5.5
2019-04-14T11:40:13.761Z,5.4
2019-04-14T11:43:08.623Z,5.4
2019-04-14T11:46:04.543Z,5.4
2019-04-14T11:48:58.309Z,5.4
2019-04-14T11:51:56.033Z,5.4
2019-04-14T11:54:48.005Z,5.4
2019-04-14T11:57:42.847Z,5.4
2019-04-14T12:00:37.737Z,5.3
2019-04-14T12:03:32.944Z,5.3
2019-04-14T12:06:27.384Z,5.4
2019-04-14T12:09:22.227Z,5.4
2019-04-14T12:12:17.066Z,5.4
2019-04-14T12:15:16.881Z,5.4
2019-04-14T12:18:06.712Z,5.4
2019-04-14T12:21:01.555Z,5.4
2019-04-14T12:23:56.399Z,5.3
2019-04-14T12:26:51.219Z,5.4
2019-04-14T12:29:46.194Z,5.4
2019-04-14T12:32:40.900Z,5.6
2019-04-14T12:35:35.696Z,5.6
2019-04-14T12:38:30.557Z,5.7
2019-04-14T12:41:26.565Z,5.6
2019-04-14T12:44:20.244Z,5.5
2019-04-14T12:47:15.109Z,5.8
2019-04-14T12:50:09.932Z,5.7
2019-04-14T12:53:04.787Z,5.7
2019-04-14T12:55:59.681Z,5.7
2019-04-14T12:58:54.509Z,5.7
2019-04-14T13:01:49.393Z,5.8
2019-04-14T13:04:44.254Z,5.7
2019-04-14T13:07:39.075Z,5.8
2019-04-14T13:10:33.950Z,5.8
2019-04-14T13:13:28.833Z,5.9
2019-04-14T13:19:18.579Z,5.8
2019-04-14T13:22:13.472Z,5.9
2019-04-14T13:25:08.365Z,6
2019-04-14T13:28:03.280Z,5.8
2019-04-14T13:30:58.152Z,5.8
2019-04-14T13:33:55.311Z,5.9
2019-04-14T13:36:47.913Z,5.9
2019-04-14T13:39:42.723Z,6
2019-04-14T13:42:37.673Z,6
2019-04-14T13:45:32.553Z,5.9
2019-04-14T13:48:27.439Z,6
2019-04-14T13:51:22.307Z,6
2019-04-14T13:54:17.188Z,6
2019-04-14T13:57:12.082Z,6
2019-04-14T14:00:06.978Z,6
2019-04-14T14:03:01.872Z,6
2019-04-14T14:05:56.806Z,5.9
2019-04-14T14:08:51.710Z,5.9
2019-04-14T14:11:46.584Z,5.9
2019-04-14T14:14:41.410Z,5.9
2019-04-14T14:17:36.404Z,5.9
2019-04-14T14:20:31.342Z,5.9
2019-04-14T14:23:28.357Z,5.9
2019-04-14T14:26:21.178Z,5.9
2019-04-14T14:29:16.104Z,5.9
2019-04-14T14:32:11.020Z,5.9
2019-04-14T14:35:05.931Z,5.9
2019-04-14T14:38:00.859Z,5.9
2019-04-14T14:40:55.760Z,5.9
2019-04-14T14:43:50.666Z,6
2019-04-14T14:46:45.600Z,5.9
2019-04-14T14:49:40.530Z,6
2019-04-14T14:52:35.446Z,5.9
2019-04-14T14:55:30.358Z,5.9
2019-04-14T14:58:25.278Z,5.9
2019-04-14T15:01:20.204Z,5.9
2019-04-14T15:04:15.115Z,6
2019-04-14T15:07:10.043Z,6
2019-04-14T15:10:04.922Z,5.9
2019-04-14T15:12:59.828Z,6
2019-04-14T15:15:54.806Z,5.9
2019-04-14T15:18:49.656Z,6
2019-04-14T15:21:44.555Z,6
2019-04-14T15:24:39.478Z,5.9
2019-04-14T15:27:34.367Z,5.9
2019-04-14T15:30:29.252Z,5.9
2019-04-14T15:33:24.143Z,5.8
2019-04-14T15:36:19.007Z,5.8
2019-04-14T15:39:13.906Z,5.8
2019-04-14T15:42:08.808Z,5.8
2019-04-14T15:45:03.688Z,5.8
2019-04-14T15:47:58.574Z,5.8
2019-04-14T15:50:53.463Z,5.8
2019-04-14T15:53:48.352Z,5.8
2019-04-14T15:56:43.256Z,5.8
2019-04-14T15:59:38.143Z,5.9
2019-04-14T16:02:33.037Z,5.9
2019-04-14T16:05:27.923Z,5.9
2019-04-14T16:08:22.833Z,5.9
2019-04-14T16:11:17.713Z,5.9
2019-04-14T16:14:12.592Z,5.9
2019-04-14T16:17:10.430Z,5.9
2019-04-14T16:20:02.389Z,5.8
2019-04-14T16:22:57.280Z,5.7
2019-04-14T16:25:52.191Z,5.7
2019-04-14T16:28:47.104Z,5.7
2019-04-14T16:31:42.026Z,5.6
2019-04-14T16:34:36.947Z,5.5
2019-04-14T16:37:31.828Z,5.5
2019-04-14T16:40:26.658Z,5.6
2019-04-14T16:43:21.497Z,5.5
2019-04-14T16:46:16.366Z,5.5
2019-04-14T16:49:11.215Z,5.6
2019-04-14T16:52:06.032Z,5.5
2019-04-14T16:55:00.857Z,5.4
2019-04-14T16:57:55.724Z,5.5
2019-04-14T17:00:50.591Z,5.5
2019-04-14T17:03:45.475Z,5.5
2019-04-14T17:06:40.360Z,5.4
2019-04-14T17:09:35.239Z,5.4
2019-04-14T17:12:30.115Z,5.4
2019-04-14T17:15:24.957Z,5.3
2019-04-14T17:18:19.780Z,5.3
2019-04-14T17:21:14.595Z,5.3
2019-04-14T17:24:17.110Z,5.2
2019-04-14T17:27:04.227Z,5.3
2019-04-14T17:29:59.054Z,5.2
2019-04-14T17:32:53.869Z,5.3
2019-04-14T17:35:48.731Z,5.3
2019-04-14T17:38:43.572Z,5.3
2019-04-14T17:41:38.359Z,5.3
2019-04-14T17:44:33.157Z,5.1
2019-04-14T17:47:27.978Z,5.2
2019-04-14T17:50:22.853Z,5.1
2019-04-14T17:53:17.643Z,5.2
2019-04-14T17:56:12.491Z,5.2
2019-04-14T17:59:07.365Z,5.1
2019-04-14T18:02:02.194Z,5.1
2019-04-14T18:04:57.008Z,5.1
2019-04-14T18:07:51.834Z,5.1
2019-04-14T18:10:46.675Z,5.1
2019-04-14T18:13:41.522Z,5.1
2019-04-14T18:16:36.329Z,5
2019-04-14T18:19:31.149Z,5
2019-04-14T18:22:25.958Z,5
2019-04-14T18:25:20.781Z,5
2019-04-14T18:28:15.637Z,4.9
2019-04-14T18:31:10.583Z,4.9
2019-04-14T18:34:05.254Z,4.9
2019-04-14T18:37:00.056Z,4.9
2019-04-14T18:39:54.876Z,4.8
2019-04-14T18:42:49.682Z,4.8
2019-04-14T18:45:44.524Z,4.7
2019-04-14T18:48:39.270Z,4.7
2019-04-14T18:51:34.059Z,4.7
2019-04-14T18:54:28.842Z,4.6
2019-04-14T18:57:23.620Z,4.5
2019-04-14T19:00:18.388Z,4.6
2019-04-14T19:03:13.181Z,4.7
2019-04-14T19:06:07.991Z,4.7
2019-04-14T19:09:02.770Z,4.6
2019-04-14T19:11:57.565Z,4.6
2019-04-14T19:14:52.366Z,4.6
2019-04-14T19:17:47.153Z,4.6
2019-04-14T19:20:42.006Z,4.6
2019-04-14T19:23:36.768Z,4.6
2019-04-14T19:26:31.553Z,4.6
2019-04-14T19:29:28.162Z,4.6
2019-04-14T19:32:21.161Z,4.6
2019-04-14T19:35:15.980Z,4.5
2019-04-14T19:38:10.756Z,4.5
2019-04-14T19:41:05.562Z,4.5
2019-04-14T19:44:00.367Z,4.5
2019-04-14T19:46:55.172Z,4.4
2019-04-14T19:49:49.990Z,4.4
2019-04-14T19:52:44.773Z,4.4
2019-04-14T19:55:39.563Z,4.5
2019-04-14T19:58:34.396Z,4.4
2019-04-14T20:01:29.190Z,4.4
2019-04-14T20:04:24.002Z,4.4
2019-04-14T20:07:18.783Z,4.4
2019-04-14T20:10:13.591Z,4.4
2019-04-14T20:13:08.374Z,4.4
2019-04-14T20:16:03.188Z,4.4
2019-04-14T20:19:10.949Z,4.5
2019-04-14T20:21:52.785Z,4.4
2019-04-14T20:24:47.604Z,4.4
2019-04-14T20:27:42.358Z,4.3
2019-04-14T20:30:37.137Z,4.3
2019-04-14T20:33:31.952Z,4.3
2019-04-14T20:36:26.568Z,4.3
2019-04-14T20:39:21.407Z,4.3
2019-04-14T20:42:16.178Z,4.2
2019-04-14T20:45:10.928Z,4.2
2019-04-14T20:48:05.704Z,4.2
2019-04-14T20:51:00.484Z,4.1
2019-04-14T20:53:55.266Z,4.2
2019-04-14T20:56:50.081Z,4.2
2019-04-14T20:59:44.834Z,4.2
2019-04-14T21:02:39.602Z,4.2
2019-04-14T21:05:34.434Z,4.1
2019-04-14T21:08:29.160Z,4.1
2019-04-14T21:11:23.904Z,4.2
2019-04-14T21:14:18.576Z,4.1
2019-04-14T21:17:13.428Z,4.2
2019-04-14T21:20:08.166Z,4.2
2019-04-14T21:23:02.945Z,4.2
2019-04-14T21:26:01.508Z,4.1
2019-04-14T21:28:52.468Z,4.1
2019-04-14T21:31:47.236Z,4.1
2019-04-14T21:34:41.997Z,4.1
2019-04-14T21:37:36.753Z,4
2019-04-14T21:40:31.524Z,4
2019-04-14T21:43:26.298Z,4
2019-04-14T21:46:21.065Z,4
2019-04-14T21:49:15.813Z,4.1
2019-04-14T21:52:10.580Z,4.1
2019-04-14T21:55:05.352Z,4.1
2019-04-14T21:58:00.119Z,4.1
2019-04-14T22:00:54.851Z,4.1
2019-04-14T22:03:49.549Z,4.1
2019-04-14T22:06:44.407Z,4
2019-04-14T22:09:39.159Z,4.1
2019-04-14T22:12:33.895Z,4
2019-04-14T22:15:28.652Z,4
2019-04-14T22:18:23.385Z,4
2019-04-14T22:21:18.167Z,4
2019-04-14T22:24:12.957Z,4
2019-04-14T22:27:07.737Z,4
2019-04-14T22:30:02.559Z,4
2019-04-14T22:32:57.329Z,4.1
2019-04-14T22:35:52.113Z,4.1
2019-04-14T22:38:46.903Z,4.1
2019-04-14T22:41:41.707Z,4
2019-04-14T22:44:36.525Z,4.1
2019-04-14T22:47:31.311Z,4.1
2019-04-14T22:50:25.993Z,4
2019-04-14T22:53:20.856Z,4
2019-04-14T22:56:15.669Z,4
2019-04-14T22:59:10.417Z,4
2019-04-14T23:02:05.209Z,4
2019-04-14T23:04:59.996Z,4
2019-04-14T23:07:54.793Z,4
2019-04-14T23:10:49.625Z,4
2019-04-14T23:13:44.301Z,4
2019-04-14T23:16:39.137Z,4
2019-04-14T23:19:33.839Z,4
2019-04-14T23:22:28.608Z,4
2019-04-14T23:25:23.364Z,4
2019-04-14T23:28:18.060Z,4
2019-04-14T23:31:12.947Z,4
2019-04-14T23:34:07.672Z,4
2019-04-14T23:37:02.451Z,4
2019-04-14T23:39:57.225Z,4
2019-04-14T23:42:52.025Z,4
2019-04-14T23:45:46.795Z,4.1
2019-04-14T23:48:41.584Z,4.1
2019-04-14T23:51:36.390Z,4.1
2019-04-14T23:54:31.183Z,4.1
2019-04-14T23:57:25.990Z,4
